createdAt,value
2022-09-15T00:00:38.292Z,16.78
2022-09-15T00:05:39.837Z,16.79
2022-09-15T00:10:54.067Z,16.80
2022-09-15T00:15:55.620Z,16.79
2022-09-15T00:20:57.339Z,16.82
2022-09-15T00:25:58.873Z,16.76
2022-09-15T00:31:00.508Z,16.68
2022-09-15T00:36:05.099Z,16.63
2022-09-15T00:41:08.757Z,16.59
2022-09-15T00:46:10.732Z,16.56
2022-09-15T00:51:16.753Z,16.50
2022-09-15T00:56:19.741Z,16.38
2022-09-15T01:01:25.203Z,16.26
2022-09-15T01:06:36.305Z,16.12
2022-09-15T01:11:39.788Z,16.05
2022-09-15T01:16:57.679Z,16.02
2022-09-15T01:22:32.431Z,16.05
2022-09-15T01:28:11.223Z,16.16
2022-09-15T01:33:38.991Z,16.25
2022-09-15T01:39:00.875Z,16.35
2022-09-15T01:44:21.617Z,16.45
2022-09-15T01:49:28.053Z,16.52
2022-09-15T01:54:35.979Z,16.50
2022-09-15T01:59:37.523Z,16.51
2022-09-15T02:04:48.535Z,16.56
2022-09-15T02:10:05.468Z,16.63
2022-09-15T02:15:12.186Z,16.65
2022-09-15T02:21:13.833Z,16.69
2022-09-15T02:26:19.580Z,16.71
2022-09-15T02:31:24.993Z,16.72
2022-09-15T02:36:29.180Z,16.72
2022-09-15T02:41:31.098Z,16.73
2022-09-15T02:46:34.046Z,16.75
2022-09-15T02:51:35.955Z,16.77
2022-09-15T02:56:37.879Z,16.75
2022-09-15T03:01:40.853Z,16.78
2022-09-15T03:06:43.572Z,16.84
2022-09-15T03:11:45.148Z,16.88
2022-09-15T03:16:47.510Z,16.90
2022-09-15T03:21:49.083Z,16.94
2022-09-15T03:26:50.590Z,16.99
2022-09-15T03:31:52.183Z,17.03
2022-09-15T03:36:53.743Z,17.08
2022-09-15T03:41:55.615Z,17.12
2022-09-15T03:46:58.212Z,17.15
2022-09-15T03:51:59.763Z,17.18
2022-09-15T03:57:01.500Z,17.21
2022-09-15T04:02:03.177Z,17.24
2022-09-15T04:07:09.955Z,17.26
2022-09-15T04:12:11.615Z,17.28
2022-09-15T04:17:13.149Z,17.26
2022-09-15T04:22:17.853Z,17.22
2022-09-15T04:27:19.724Z,17.20
2022-09-15T04:32:21.964Z,17.08
2022-09-15T04:37:23.667Z,16.90
2022-09-15T04:42:33.990Z,16.77
2022-09-15T04:47:35.590Z,16.54
2022-09-15T04:52:37.147Z,16.50
2022-09-15T04:57:38.671Z,16.42
2022-09-15T05:02:40.383Z,16.36
2022-09-15T05:07:41.878Z,16.33
2022-09-15T05:12:43.393Z,16.31
2022-09-15T05:17:44.914Z,16.30
2022-09-15T05:22:46.470Z,16.26
2022-09-15T05:27:47.991Z,16.22
2022-09-15T05:32:49.558Z,16.13
2022-09-15T05:37:51.111Z,16.12
2022-09-15T05:42:52.839Z,16.22
2022-09-15T05:47:54.341Z,16.18
2022-09-15T05:52:55.942Z,16.18
2022-09-15T05:57:57.502Z,16.22
2022-09-15T06:02:59.123Z,16.21
2022-09-15T06:08:00.891Z,16.22
2022-09-15T06:13:02.399Z,16.16
2022-09-15T06:18:03.994Z,16.21
2022-09-15T06:23:05.524Z,16.21
2022-09-15T06:28:10.033Z,16.22
2022-09-15T06:33:11.541Z,16.19
2022-09-15T06:38:13.402Z,16.23
2022-09-15T06:43:14.955Z,16.26
2022-09-15T06:48:24.573Z,16.23
2022-09-15T06:53:34.834Z,16.29
2022-09-15T06:58:38.642Z,16.37
2022-09-15T07:03:42.792Z,16.42
2022-09-15T07:08:45.363Z,16.42
2022-09-15T07:13:49.097Z,16.43
2022-09-15T07:18:51.004Z,16.43
2022-09-15T07:23:52.813Z,16.40
2022-09-15T07:28:57.087Z,16.35
2022-09-15T07:33:59.949Z,16.39
2022-09-15T07:39:03.586Z,16.41
2022-09-15T07:44:06.918Z,16.44
2022-09-15T07:49:10.514Z,16.35
2022-09-15T07:54:12.281Z,15.57
2022-09-15T07:59:15.033Z,14.91
2022-09-15T08:04:16.607Z,14.60
2022-09-15T08:09:18.308Z,14.28
2022-09-15T08:14:19.884Z,13.70
2022-09-15T08:19:21.404Z,13.60
2022-09-15T08:24:23.591Z,13.78
2022-09-15T08:29:25.228Z,13.99
2022-09-15T08:34:27.623Z,14.04
2022-09-15T08:39:29.188Z,13.76
2022-09-15T08:44:41.263Z,13.62
2022-09-15T08:50:05.121Z,13.53
2022-09-15T08:55:43.729Z,13.47
2022-09-15T09:00:52.921Z,13.29
2022-09-15T09:06:06.010Z,13.22
2022-09-15T09:11:12.951Z,13.13
2022-09-15T09:16:43.658Z,13.08
2022-09-15T09:21:51.833Z,13.04
2022-09-15T09:26:57.120Z,13.08
2022-09-15T09:31:59.955Z,13.00
2022-09-15T09:37:11.119Z,13.04
2022-09-15T09:42:18.493Z,13.14
2022-09-15T09:47:20.775Z,13.21
2022-09-15T09:52:39.166Z,12.84
2022-09-15T09:57:41.008Z,12.51
2022-09-15T10:02:48.717Z,12.39
2022-09-15T10:07:50.406Z,12.56
2022-09-15T10:12:56.507Z,12.71
2022-09-15T10:17:58.242Z,12.94
2022-09-15T10:23:14.828Z,13.09
2022-09-15T10:28:25.748Z,13.27
2022-09-15T10:33:50.315Z,13.41
2022-09-15T10:39:35.504Z,13.71
2022-09-15T10:44:52.875Z,13.96
2022-09-15T10:50:13.189Z,13.97
2022-09-15T10:55:48.960Z,14.15
2022-09-15T11:01:22.498Z,14.35
2022-09-15T11:06:41.934Z,14.58
2022-09-15T11:12:18.120Z,14.85
2022-09-15T11:17:31.350Z,14.99
2022-09-15T11:22:47.291Z,14.76
2022-09-15T11:28:00.019Z,14.94
2022-09-15T11:33:14.778Z,15.49
2022-09-15T11:38:31.198Z,16.15
2022-09-15T11:43:50.729Z,16.78
2022-09-15T11:49:02.038Z,16.90
2022-09-15T11:54:15.896Z,16.89
2022-09-15T11:59:39.610Z,17.24
2022-09-15T12:05:03.282Z,17.46
2022-09-15T12:10:13.771Z,18.08
2022-09-15T12:15:18.969Z,18.03
2022-09-15T12:20:51.112Z,18.35
2022-09-15T12:26:05.248Z,18.00
2022-09-15T12:31:38.703Z,18.06
2022-09-15T12:36:42.594Z,17.92
2022-09-15T12:41:58.250Z,18.20
2022-09-15T12:47:01.750Z,18.38
2022-09-15T12:52:07.336Z,18.69
2022-09-15T12:57:31.927Z,18.96
2022-09-15T13:02:48.492Z,18.93
2022-09-15T13:07:57.587Z,18.88
2022-09-15T13:13:51.828Z,19.04
2022-09-15T13:19:15.410Z,19.20
2022-09-15T13:24:40.422Z,19.41
2022-09-15T13:30:07.867Z,19.42
2022-09-15T13:35:24.960Z,19.52
2022-09-15T13:40:53.579Z,19.61
2022-09-15T13:46:27.473Z,19.58
2022-09-15T13:51:31.470Z,19.45
2022-09-15T13:56:39.862Z,19.28
2022-09-15T14:01:46.595Z,19.19
2022-09-15T14:06:51.678Z,19.01
2022-09-15T14:11:57.842Z,18.89
2022-09-15T14:16:59.491Z,18.78
2022-09-15T14:22:20.119Z,18.67
2022-09-15T14:27:27.687Z,18.61
2022-09-15T14:32:34.308Z,18.64
2022-09-15T14:37:35.979Z,18.69
2022-09-15T14:42:41.310Z,18.70
2022-09-15T14:47:43.414Z,18.64
2022-09-15T14:52:58.232Z,18.62
2022-09-15T14:58:13.361Z,18.58
2022-09-15T15:03:33.149Z,18.49
2022-09-15T15:08:44.516Z,18.54
2022-09-15T15:13:50.462Z,18.56
2022-09-15T15:18:53.244Z,18.60
2022-09-15T15:23:55.333Z,18.65
2022-09-15T15:28:56.960Z,18.76
2022-09-15T15:34:05.151Z,19.01
2022-09-15T15:39:08.075Z,19.21
2022-09-15T15:44:15.327Z,19.35
2022-09-15T15:49:18.015Z,19.44
2022-09-15T15:54:19.626Z,19.49
2022-09-15T15:59:21.581Z,19.50
2022-09-15T16:04:23.064Z,19.43
2022-09-15T16:09:24.596Z,19.37
2022-09-15T16:14:26.139Z,19.31
2022-09-15T16:19:27.659Z,19.29
2022-09-15T16:24:29.173Z,19.20
2022-09-15T16:29:36.172Z,19.11
2022-09-15T16:34:37.875Z,18.92
2022-09-15T16:39:39.370Z,18.79
2022-09-15T16:44:40.866Z,18.66
2022-09-15T16:49:42.667Z,18.53
2022-09-15T16:54:44.667Z,18.36
2022-09-15T16:59:46.162Z,18.11
2022-09-15T17:04:47.651Z,17.96
2022-09-15T17:09:51.231Z,17.74
2022-09-15T17:14:52.739Z,17.57
2022-09-15T17:19:54.221Z,17.39
2022-09-15T17:24:55.698Z,17.23
2022-09-15T17:29:57.412Z,17.04
2022-09-15T17:34:59.958Z,16.82
2022-09-15T17:40:02.639Z,16.72
2022-09-15T17:45:19.179Z,16.56
2022-09-15T17:50:22.692Z,16.42
2022-09-15T17:55:32.663Z,16.31
2022-09-15T18:00:35.895Z,16.23
2022-09-15T18:05:37.688Z,16.15
2022-09-15T18:10:39.316Z,16.00
2022-09-15T18:15:41.399Z,15.81
2022-09-15T18:20:43.675Z,15.59
2022-09-15T18:25:47.007Z,15.32
2022-09-15T18:30:50.244Z,15.07
2022-09-15T18:35:54.783Z,14.83
2022-09-15T18:40:57.165Z,14.60
2022-09-15T18:46:00.077Z,14.39
2022-09-15T18:51:01.779Z,14.16
2022-09-15T18:56:14.339Z,14.02
2022-09-15T19:01:17.880Z,13.83
2022-09-15T19:06:19.491Z,13.71
2022-09-15T19:11:21.065Z,13.58
2022-09-15T19:16:34.610Z,13.45
2022-09-15T19:21:47.107Z,13.34
2022-09-15T19:26:48.807Z,13.21
2022-09-15T19:31:50.398Z,13.11
2022-09-15T19:36:51.940Z,13.02
2022-09-15T19:41:53.514Z,12.92
2022-09-15T19:46:55.031Z,12.81
2022-09-15T19:51:56.636Z,12.73
2022-09-15T19:56:58.215Z,12.66
2022-09-15T20:02:00.793Z,12.58
2022-09-15T20:07:02.382Z,12.48
2022-09-15T20:12:04.087Z,12.39
2022-09-15T20:17:05.925Z,12.30
2022-09-15T20:22:07.511Z,12.23
2022-09-15T20:27:09.142Z,12.22
2022-09-15T20:32:10.721Z,12.18
2022-09-15T20:37:12.291Z,12.10
2022-09-15T20:42:13.791Z,12.08
2022-09-15T20:47:15.615Z,12.10
2022-09-15T20:52:17.102Z,12.04
2022-09-15T20:57:18.591Z,12.00
2022-09-15T21:02:20.180Z,11.94
2022-09-15T21:07:23.822Z,11.90
2022-09-15T21:12:25.455Z,11.84
2022-09-15T21:17:28.927Z,11.75
2022-09-15T21:22:30.414Z,11.66
2022-09-15T21:27:31.956Z,11.61
2022-09-15T21:32:33.751Z,11.58
2022-09-15T21:37:35.401Z,11.61
2022-09-15T21:42:36.910Z,11.63
2022-09-15T21:47:38.405Z,11.60
2022-09-15T21:52:39.926Z,11.57
2022-09-15T21:57:41.451Z,11.48
2022-09-15T22:02:42.977Z,11.48
2022-09-15T22:07:44.523Z,11.53
2022-09-15T22:12:48.216Z,11.64
2022-09-15T22:17:49.936Z,11.83
2022-09-15T22:22:51.678Z,11.93
2022-09-15T22:27:53.174Z,12.05
2022-09-15T22:32:54.660Z,12.19
2022-09-15T22:37:56.215Z,12.30
2022-09-15T22:42:57.786Z,12.42
2022-09-15T22:47:59.290Z,12.56
2022-09-15T22:53:00.841Z,12.69
2022-09-15T22:58:02.338Z,12.81
2022-09-15T23:03:04.168Z,12.86
2022-09-15T23:08:05.669Z,12.82
2022-09-15T23:13:07.180Z,12.68
2022-09-15T23:18:08.735Z,12.67
2022-09-15T23:23:10.525Z,12.65
2022-09-15T23:28:12.023Z,12.72
2022-09-15T23:33:13.545Z,12.80
2022-09-15T23:38:15.667Z,12.84
2022-09-15T23:43:17.896Z,12.87
2022-09-15T23:48:20.017Z,12.86
2022-09-15T23:53:21.707Z,12.88
2022-09-15T23:58:23.227Z,12.98
